createdAt,value
2023-05-28T00:01:30.459Z,100547.25
2023-05-28T00:04:33.595Z,100541.38
2023-05-28T00:07:36.581Z,100535.19
2023-05-28T00:10:39.324Z,100540.53
2023-05-28T00:13:42.934Z,100539.53
2023-05-28T00:16:46.504Z,100541.50
2023-05-28T00:19:49.505Z,100535.50
2023-05-28T00:22:53.268Z,100539.81
2023-05-28T00:25:56.042Z,100519.03
2023-05-28T00:28:58.888Z,100536.63
2023-05-28T00:32:02.404Z,100535.19
2023-05-28T00:35:05.568Z,100531.81
2023-05-28T00:38:08.634Z,100524.78
2023-05-28T00:41:11.241Z,100524.38
2023-05-28T00:44:14.239Z,100520.06
2023-05-28T00:47:16.878Z,100522.03
2023-05-28T00:50:21.570Z,100511.34
2023-05-28T00:53:26.288Z,100503.28
2023-05-28T00:56:30.457Z,100513.97
2023-05-28T00:59:35.339Z,100506.44
2023-05-28T01:02:38.672Z,100506.97
2023-05-28T01:05:43.565Z,100492.22
2023-05-28T01:08:46.359Z,100502.06
2023-05-28T01:11:52.483Z,100496.38
2023-05-28T01:14:56.019Z,100489.50
2023-05-28T01:18:01.379Z,100483.81
2023-05-28T01:21:04.908Z,100486.16
2023-05-28T01:24:09.663Z,100482.84
2023-05-28T01:27:13.939Z,100492.84
2023-05-28T01:30:16.471Z,100491.00
2023-05-28T01:33:22.465Z,100470.06
2023-05-28T01:36:30.190Z,100483.63
2023-05-28T01:39:41.149Z,100468.03
2023-05-28T01:42:47.598Z,100480.78
2023-05-28T01:45:51.807Z,100476.06
2023-05-28T01:48:55.030Z,100488.44
2023-05-28T01:51:58.273Z,100478.41
2023-05-28T01:55:01.322Z,100481.91
2023-05-28T01:58:04.115Z,100458.09
2023-05-28T02:01:22.112Z,100479.03
2023-05-28T02:04:25.102Z,100470.97
2023-05-28T02:07:27.825Z,100479.88
2023-05-28T02:10:30.503Z,100471.03
2023-05-28T02:13:33.600Z,100479.88
2023-05-28T02:16:39.243Z,100469.66
2023-05-28T02:19:42.011Z,100468.16
2023-05-28T02:22:46.402Z,100468.91
2023-05-28T02:25:49.446Z,100470.22
2023-05-28T02:28:52.173Z,100462.19
2023-05-28T02:31:55.586Z,100468.22
2023-05-28T02:34:59.161Z,100473.34
2023-05-28T02:38:02.450Z,100472.66
2023-05-28T02:41:05.502Z,100470.47
2023-05-28T02:44:09.674Z,100483.50
2023-05-28T02:47:12.134Z,100464.78
2023-05-28T02:50:15.458Z,100464.09
2023-05-28T02:53:38.510Z,100464.78
2023-05-28T02:56:41.484Z,100473.50
2023-05-28T02:59:45.235Z,100448.34
2023-05-28T03:02:49.066Z,100459.06
2023-05-28T03:05:52.730Z,100470.59
2023-05-28T03:08:57.222Z,100477.69
2023-05-28T03:11:59.938Z,100463.16
2023-05-28T03:15:04.054Z,100475.94
2023-05-28T03:18:08.231Z,100472.03
2023-05-28T03:21:14.631Z,100468.09
2023-05-28T03:24:17.758Z,100471.94
2023-05-28T03:27:23.689Z,100471.56
2023-05-28T03:30:26.854Z,100480.13
2023-05-28T03:33:31.637Z,100473.94
2023-05-28T03:36:35.273Z,100477.44
2023-05-28T03:39:41.291Z,100477.91
2023-05-28T03:42:45.438Z,100480.75
2023-05-28T03:45:48.714Z,100471.41
2023-05-28T03:48:51.739Z,100476.81
2023-05-28T03:51:54.321Z,100466.78
2023-05-28T03:54:57.792Z,100466.84
2023-05-28T03:58:02.243Z,100467.00
2023-05-28T04:01:05.038Z,100461.31
2023-05-28T04:04:07.931Z,100477.06
2023-05-28T04:07:10.706Z,100471.53
2023-05-28T04:10:15.136Z,100479.56
2023-05-28T04:13:19.155Z,100481.22
2023-05-28T04:16:24.305Z,100469.19
2023-05-28T04:19:27.190Z,100476.94
2023-05-28T04:22:30.876Z,100470.66
2023-05-28T04:25:33.936Z,100472.81
2023-05-28T04:28:38.089Z,100468.69
2023-05-28T04:31:42.824Z,100480.78
2023-05-28T04:34:46.799Z,100472.38
2023-05-28T04:37:52.258Z,100467.34
2023-05-28T04:40:56.867Z,100479.81
2023-05-28T04:43:59.727Z,100482.84
2023-05-28T04:47:04.098Z,100476.47
2023-05-28T04:50:07.473Z,100479.47
2023-05-28T04:53:10.156Z,100486.19
2023-05-28T04:56:12.822Z,100493.28
2023-05-28T04:59:15.479Z,100488.91
2023-05-28T05:02:20.086Z,100470.47
2023-05-28T05:05:22.779Z,100491.75
2023-05-28T05:08:25.713Z,100480.88
2023-05-28T05:11:28.899Z,100479.56
2023-05-28T05:14:31.501Z,100481.28
2023-05-28T05:17:34.613Z,100475.25
2023-05-28T05:20:37.237Z,100478.56
2023-05-28T05:23:42.020Z,100482.91
2023-05-28T05:26:44.984Z,100484.94
2023-05-28T05:29:47.715Z,100490.78
2023-05-28T05:32:50.418Z,100493.28
2023-05-28T05:35:53.409Z,100479.88
2023-05-28T05:39:21.171Z,100464.47
2023-05-28T05:42:43.165Z,100479.53
2023-05-28T05:45:45.960Z,100474.19
2023-05-28T05:48:49.483Z,100465.78
2023-05-28T05:51:52.150Z,100469.66
2023-05-28T05:54:56.062Z,100468.81
2023-05-28T05:57:59.972Z,100473.81
2023-05-28T06:01:02.981Z,100459.41
2023-05-28T06:04:06.391Z,100479.09
2023-05-28T06:07:27.328Z,100481.63
2023-05-28T06:10:53.294Z,100479.59
2023-05-28T06:13:57.897Z,100474.34
2023-05-28T06:17:00.708Z,100476.63
2023-05-28T06:20:05.792Z,100475.25
2023-05-28T06:23:08.735Z,100476.53
2023-05-28T06:26:11.564Z,100477.03
2023-05-28T06:29:14.532Z,100480.88
2023-05-28T06:32:17.365Z,100481.50
2023-05-28T06:35:21.203Z,100489.47
2023-05-28T06:38:24.685Z,100484.88
2023-05-28T06:41:27.393Z,100478.88
2023-05-28T06:44:30.047Z,100495.03
2023-05-28T06:47:40.857Z,100491.91
2023-05-28T06:50:44.226Z,100493.94
2023-05-28T06:53:47.793Z,100486.56
2023-05-28T06:56:52.843Z,100493.00
2023-05-28T07:00:33.910Z,100487.94
2023-05-28T07:03:54.310Z,100488.50
2023-05-28T07:07:29.377Z,100480.00
2023-05-28T07:10:32.012Z,100475.38
2023-05-28T07:13:34.966Z,100478.25
2023-05-28T07:16:38.063Z,100470.00
2023-05-28T07:19:41.002Z,100480.50
2023-05-28T07:22:44.037Z,100484.16
2023-05-28T07:25:47.879Z,100481.53
2023-05-28T07:28:50.545Z,100465.09
2023-05-28T07:31:54.465Z,100474.97
2023-05-28T07:35:00.189Z,100473.34
2023-05-28T07:38:03.650Z,100469.59
2023-05-28T07:41:06.592Z,100471.94
2023-05-28T07:44:22.665Z,100469.44
2023-05-28T07:47:26.280Z,100460.50
2023-05-28T07:50:46.909Z,100472.16
2023-05-28T07:54:09.939Z,100465.50
2023-05-28T07:57:15.902Z,100466.78
2023-05-28T08:00:20.407Z,100465.09
2023-05-28T08:03:30.427Z,100458.41
2023-05-28T08:06:36.450Z,100455.88
2023-05-28T08:09:43.643Z,100455.06
2023-05-28T08:12:48.195Z,100454.19
2023-05-28T08:15:50.859Z,100451.25
2023-05-28T08:18:56.435Z,100448.13
2023-05-28T08:21:59.629Z,100445.03
2023-05-28T08:25:04.200Z,100453.75
2023-05-28T08:28:10.812Z,100441.16
2023-05-28T08:31:13.804Z,100429.78
2023-05-28T08:34:39.591Z,100434.56
2023-05-28T08:37:42.413Z,100436.50
2023-05-28T08:40:55.955Z,100431.72
2023-05-28T08:43:59.444Z,100435.09
2023-05-28T08:47:04.798Z,100434.44
2023-05-28T08:50:19.659Z,100426.78
2023-05-28T08:53:48.464Z,100419.22
2023-05-28T08:56:56.757Z,100431.94
2023-05-28T09:00:07.803Z,100420.03
2023-05-28T09:03:11.653Z,100425.81
2023-05-28T09:06:15.308Z,100415.78
2023-05-28T09:09:18.589Z,100419.91
2023-05-28T09:12:24.364Z,100424.63
2023-05-28T09:15:36.923Z,100408.13
2023-05-28T09:18:46.091Z,100411.72
2023-05-28T09:22:02.585Z,100409.34
2023-05-28T09:25:20.639Z,100413.66
2023-05-28T09:28:44.881Z,100404.34
2023-05-28T09:31:58.928Z,100405.28
2023-05-28T09:35:02.309Z,100395.97
2023-05-28T09:38:09.420Z,100404.66
2023-05-28T09:41:19.384Z,100395.06
2023-05-28T09:44:22.036Z,100403.28
2023-05-28T09:47:24.747Z,100397.16
2023-05-28T09:50:30.463Z,100385.63
2023-05-28T09:53:35.618Z,100380.19
2023-05-28T09:56:40.528Z,100386.00
2023-05-28T09:59:45.824Z,100384.09
2023-05-28T10:03:02.128Z,100389.75
2023-05-28T10:06:12.174Z,100385.59
2023-05-28T10:09:18.367Z,100376.81
2023-05-28T10:12:26.694Z,100379.88
2023-05-28T10:15:29.591Z,100373.91
2023-05-28T10:18:32.748Z,100368.13
2023-05-28T10:21:36.810Z,100360.66
2023-05-28T10:24:39.668Z,100358.88
2023-05-28T10:27:46.681Z,100359.09
2023-05-28T10:31:03.656Z,100350.16
2023-05-28T10:34:18.565Z,100348.81
2023-05-28T10:37:24.565Z,100346.53
2023-05-28T10:40:27.383Z,100348.38
2023-05-28T10:43:39.040Z,100347.16
2023-05-28T10:46:42.215Z,100335.84
2023-05-28T10:50:17.038Z,100349.34
2023-05-28T10:53:20.828Z,100345.59
2023-05-28T10:56:26.755Z,100340.50
2023-05-28T10:59:38.621Z,100346.00
2023-05-28T11:02:48.904Z,100331.56
2023-05-28T11:05:52.068Z,100329.59
2023-05-28T11:08:58.216Z,100325.09
2023-05-28T11:12:03.108Z,100329.38
2023-05-28T11:15:08.474Z,100325.63
2023-05-28T11:18:11.410Z,100321.16
2023-05-28T11:21:14.784Z,100307.38
2023-05-28T11:24:17.548Z,100295.28
2023-05-28T11:27:23.965Z,100286.13
2023-05-28T11:30:26.607Z,100289.72
2023-05-28T11:33:30.428Z,100288.03
2023-05-28T11:36:41.521Z,100274.91
2023-05-28T11:39:52.622Z,100278.41
2023-05-28T11:43:00.209Z,100276.00
2023-05-28T11:46:07.087Z,100275.34
2023-05-28T11:49:10.114Z,100258.25
2023-05-28T11:52:17.471Z,100254.25
2023-05-28T11:55:20.421Z,100245.31
2023-05-28T11:58:31.295Z,100255.09
2023-05-28T12:01:35.646Z,100244.94
2023-05-28T12:04:38.776Z,100243.88
2023-05-28T12:07:49.849Z,100244.19
2023-05-28T12:10:53.819Z,100241.03
2023-05-28T12:14:01.186Z,100236.91
2023-05-28T12:17:10.140Z,100236.56
2023-05-28T12:20:14.111Z,100240.97
2023-05-28T12:23:22.382Z,100244.16
2023-05-28T12:26:25.004Z,100242.72
2023-05-28T12:29:29.857Z,100230.28
2023-05-28T12:32:33.436Z,100225.25
2023-05-28T12:35:36.130Z,100231.53
2023-05-28T12:38:38.720Z,100234.81
2023-05-28T12:41:41.253Z,100227.06
2023-05-28T12:44:44.447Z,100221.59
2023-05-28T12:47:47.175Z,100215.19
2023-05-28T12:50:50.370Z,100220.69
2023-05-28T12:53:53.010Z,100220.75
2023-05-28T12:56:57.058Z,100215.03
2023-05-28T13:00:00.100Z,100213.56
2023-05-28T13:03:06.616Z,100205.34
2023-05-28T13:06:12.892Z,100215.38
2023-05-28T13:09:16.315Z,100213.66
2023-05-28T13:12:19.506Z,100206.09
2023-05-28T13:15:22.337Z,100209.38
2023-05-28T13:18:24.911Z,100204.47
2023-05-28T13:21:27.538Z,100209.09
2023-05-28T13:24:43.861Z,100197.22
2023-05-28T13:27:50.880Z,100207.16
2023-05-28T13:30:53.687Z,100201.00
2023-05-28T13:33:56.425Z,100201.28
2023-05-28T13:36:58.919Z,100192.97
2023-05-28T13:40:02.082Z,100181.75
2023-05-28T13:43:04.899Z,100181.16
2023-05-28T13:46:07.892Z,100183.88
2023-05-28T13:49:10.472Z,100179.81
2023-05-28T13:52:13.251Z,100181.97
2023-05-28T13:55:16.378Z,100183.66
2023-05-28T13:58:19.271Z,100182.09
2023-05-28T14:01:23.041Z,100183.75
2023-05-28T14:04:26.027Z,100183.47
2023-05-28T14:07:28.710Z,100185.63
2023-05-28T14:10:32.908Z,100191.28
2023-05-28T14:13:37.002Z,100179.22
2023-05-28T14:16:39.547Z,100174.78
2023-05-28T14:19:46.471Z,100188.69
2023-05-28T14:22:51.024Z,100173.22
2023-05-28T14:25:54.440Z,100173.25
2023-05-28T14:28:58.224Z,100178.84
2023-05-28T14:32:08.469Z,100175.91
2023-05-28T14:35:11.370Z,100179.66
2023-05-28T14:38:13.910Z,100176.84
2023-05-28T14:41:16.663Z,100176.63
2023-05-28T14:44:19.152Z,100164.28
2023-05-28T14:47:22.118Z,100159.72
2023-05-28T14:50:26.260Z,100162.91
2023-05-28T14:53:29.583Z,100156.22
2023-05-28T14:56:33.552Z,100153.53
2023-05-28T14:59:36.271Z,100155.13
2023-05-28T15:02:39.206Z,100151.38
2023-05-28T15:05:42.221Z,100158.66
2023-05-28T15:08:44.952Z,100147.00
2023-05-28T15:11:50.141Z,100147.84
2023-05-28T15:14:53.286Z,100158.59
2023-05-28T15:17:56.145Z,100158.09
2023-05-28T15:20:59.353Z,100157.97
2023-05-28T15:24:02.521Z,100146.84
2023-05-28T15:27:05.604Z,100145.59
2023-05-28T15:30:09.186Z,100150.88
2023-05-28T15:33:12.339Z,100141.84
2023-05-28T15:36:15.480Z,100148.59
2023-05-28T15:39:18.357Z,100137.78
2023-05-28T15:42:21.436Z,100140.31
2023-05-28T15:45:24.278Z,100140.19
2023-05-28T15:48:28.004Z,100135.97
2023-05-28T15:51:33.086Z,100132.50
2023-05-28T15:54:36.180Z,100134.78
2023-05-28T15:57:39.048Z,100133.63
2023-05-28T16:00:42.588Z,100144.38
2023-05-28T16:03:45.585Z,100138.38
2023-05-28T16:06:49.856Z,100142.25
2023-05-28T16:09:52.730Z,100148.59
2023-05-28T16:12:59.007Z,100143.31
2023-05-28T16:16:03.592Z,100142.72
2023-05-28T16:19:06.463Z,100148.47
2023-05-28T16:22:09.948Z,100147.44
2023-05-28T16:25:13.472Z,100154.69
2023-05-28T16:28:18.120Z,100148.53
2023-05-28T16:31:21.006Z,100152.75
2023-05-28T16:34:24.892Z,100164.13
2023-05-28T16:37:28.312Z,100159.00
2023-05-28T16:40:31.210Z,100157.25
2023-05-28T16:43:34.170Z,100150.63
2023-05-28T16:46:38.049Z,100152.56
2023-05-28T16:49:40.644Z,100149.09
2023-05-28T16:52:43.321Z,100147.13
2023-05-28T16:55:47.434Z,100160.28
2023-05-28T16:58:50.158Z,100161.84
2023-05-28T17:01:53.185Z,100159.38
2023-05-28T17:04:55.923Z,100157.78
2023-05-28T17:07:58.712Z,100153.69
2023-05-28T17:11:01.942Z,100162.47
2023-05-28T17:14:04.615Z,100168.16
2023-05-28T17:17:07.918Z,100158.19
2023-05-28T17:20:11.221Z,100154.09
2023-05-28T17:23:16.478Z,100160.16
2023-05-28T17:26:19.199Z,100167.69
2023-05-28T17:29:22.290Z,100161.69
2023-05-28T17:32:25.018Z,100161.53
2023-05-28T17:35:28.741Z,100169.00
2023-05-28T17:38:31.495Z,100165.31
2023-05-28T17:41:34.266Z,100162.03
2023-05-28T17:44:37.124Z,100168.31
2023-05-28T17:47:40.223Z,100164.59
2023-05-28T17:50:43.976Z,100157.13
2023-05-28T17:53:48.727Z,100176.91
2023-05-28T17:56:52.379Z,100168.22
2023-05-28T17:59:55.063Z,100180.88
2023-05-28T18:02:59.484Z,100177.59
2023-05-28T18:06:02.213Z,100168.44
2023-05-28T18:09:08.363Z,100171.78
2023-05-28T18:12:11.130Z,100169.50
2023-05-28T18:15:14.302Z,100172.63
2023-05-28T18:18:17.349Z,100176.81
2023-05-28T18:21:20.310Z,100172.25
2023-05-28T18:24:23.129Z,100178.69
2023-05-28T18:27:25.725Z,100185.53
2023-05-28T18:30:28.577Z,100185.56
2023-05-28T18:33:33.102Z,100180.16
2023-05-28T18:36:36.777Z,100178.09
2023-05-28T18:39:39.383Z,100190.75
2023-05-28T18:42:42.262Z,100189.72
2023-05-28T18:45:45.896Z,100183.91
2023-05-28T18:48:48.699Z,100192.66
2023-05-28T18:51:51.720Z,100190.56
2023-05-28T18:54:54.687Z,100188.44
2023-05-28T18:57:59.904Z,100177.22
2023-05-28T19:01:05.705Z,100191.78
2023-05-28T19:04:09.462Z,100191.75
2023-05-28T19:07:12.131Z,100202.94
2023-05-28T19:10:15.048Z,100196.09
2023-05-28T19:13:17.870Z,100210.81
2023-05-28T19:16:20.540Z,100216.41
2023-05-28T19:19:23.374Z,100209.94
2023-05-28T19:22:26.255Z,100220.91
2023-05-28T19:25:28.967Z,100215.91
2023-05-28T19:28:35.166Z,100222.31
2023-05-28T19:31:41.437Z,100232.91
2023-05-28T19:34:44.138Z,100228.88
2023-05-28T19:37:50.180Z,100236.53
2023-05-28T19:40:53.327Z,100238.56
2023-05-28T19:43:56.208Z,100247.91
2023-05-28T19:46:58.886Z,100245.81
2023-05-28T19:50:06.231Z,100249.56
2023-05-28T19:53:08.812Z,100251.13
2023-05-28T19:56:11.555Z,100246.13
2023-05-28T19:59:14.486Z,100256.47
2023-05-28T20:02:19.160Z,100253.97
2023-05-28T20:05:21.857Z,100257.50
2023-05-28T20:08:24.448Z,100256.44
2023-05-28T20:11:27.636Z,100243.50
2023-05-28T20:14:31.547Z,100260.13
2023-05-28T20:17:35.215Z,100263.81
2023-05-28T20:20:39.957Z,100262.53
2023-05-28T20:23:43.060Z,100264.78
2023-05-28T20:26:45.846Z,100267.78
2023-05-28T20:29:48.425Z,100265.25
2023-05-28T20:32:51.382Z,100269.97
2023-05-28T20:35:54.131Z,100270.16
2023-05-28T20:38:56.803Z,100271.78
2023-05-28T20:41:59.590Z,100270.91
2023-05-28T20:45:02.713Z,100273.72
2023-05-28T20:48:05.999Z,100273.19
2023-05-28T20:51:08.848Z,100268.78
2023-05-28T20:54:11.766Z,100267.03
2023-05-28T20:57:16.206Z,100271.38
2023-05-28T21:00:20.827Z,100268.84
2023-05-28T21:03:23.691Z,100270.88
2023-05-28T21:06:26.631Z,100269.31
2023-05-28T21:09:29.274Z,100279.19
2023-05-28T21:12:31.947Z,100274.44
2023-05-28T21:15:34.652Z,100280.38
2023-05-28T21:18:38.451Z,100275.38
2023-05-28T21:21:41.143Z,100278.19
2023-05-28T21:24:43.755Z,100281.13
2023-05-28T21:27:51.948Z,100282.25
2023-05-28T21:30:55.224Z,100286.88
2023-05-28T21:33:59.163Z,100293.00
2023-05-28T21:37:01.818Z,100287.38
2023-05-28T21:40:05.092Z,100278.81
2023-05-28T21:43:07.907Z,100285.41
2023-05-28T21:46:10.810Z,100284.13
2023-05-28T21:49:14.799Z,100280.78
2023-05-28T21:52:17.673Z,100279.50
2023-05-28T21:55:20.298Z,100281.44
2023-05-28T21:58:22.934Z,100271.88
2023-05-28T22:01:25.705Z,100271.16
2023-05-28T22:04:28.272Z,100268.91
2023-05-28T22:07:30.933Z,100267.63
2023-05-28T22:10:33.494Z,100270.97
2023-05-28T22:13:36.418Z,100274.09
2023-05-28T22:16:39.044Z,100280.78
2023-05-28T22:19:44.343Z,100268.00
2023-05-28T22:22:47.215Z,100281.59
2023-05-28T22:25:49.947Z,100280.78
2023-05-28T22:28:58.862Z,100273.53
2023-05-28T22:32:03.275Z,100270.78
2023-05-28T22:35:06.428Z,100268.97
2023-05-28T22:38:09.070Z,100275.72
2023-05-28T22:41:12.575Z,100273.41
2023-05-28T22:44:15.167Z,100263.84
2023-05-28T22:47:18.306Z,100269.59
2023-05-28T22:50:20.922Z,100270.13
2023-05-28T22:53:23.527Z,100274.03
2023-05-28T22:56:26.262Z,100275.44
2023-05-28T22:59:28.822Z,100287.88
2023-05-28T23:02:33.041Z,100285.28
2023-05-28T23:05:35.919Z,100284.81
2023-05-28T23:08:39.855Z,100288.88
2023-05-28T23:11:43.305Z,100270.63
2023-05-28T23:14:46.035Z,100288.16
2023-05-28T23:17:56.481Z,100289.00
2023-05-28T23:20:59.276Z,100279.69
2023-05-28T23:24:02.084Z,100279.56
2023-05-28T23:27:05.016Z,100283.59
2023-05-28T23:30:09.371Z,100281.63
2023-05-28T23:33:11.958Z,100277.63
2023-05-28T23:36:14.535Z,100284.66
2023-05-28T23:39:20.582Z,100281.19
2023-05-28T23:42:23.224Z,100277.66
2023-05-28T23:45:25.883Z,100277.50
2023-05-28T23:48:29.451Z,100284.66
2023-05-28T23:51:33.084Z,100277.97
2023-05-28T23:54:37.542Z,100282.63
2023-05-28T23:57:40.404Z,100277.97
